sensor_id;sensor_type;location;lat;lon;timestamp;P1;durP1;ratioP1;P2;durP2;ratioP2
73557;SDS011;61829;53.286;10.434;2023-03-01T00:02:00;14.27;;;6.85;;
73557;SDS011;61829;53.286;10.434;2023-03-01T00:04:26;14.10;;;6.65;;
73557;SDS011;61829;53.286;10.434;2023-03-01T00:06:53;12.48;;;5.82;;
73557;SDS011;61829;53.286;10.434;2023-03-01T00:09:19;13.18;;;6.25;;
73557;SDS011;61829;53.286;10.434;2023-03-01T00:11:45;11.52;;;6.45;;
73557;SDS011;61829;53.286;10.434;2023-03-01T00:14:11;13.23;;;5.85;;
73557;SDS011;61829;53.286;10.434;2023-03-01T00:16:39;17.45;;;6.43;;
73557;SDS011;61829;53.286;10.434;2023-03-01T00:19:13;12.75;;;6.15;;
73557;SDS011;61829;53.286;10.434;2023-03-01T00:21:43;12.80;;;6.32;;
73557;SDS011;61829;53.286;10.434;2023-03-01T00:24:09;12.60;;;5.68;;
73557;SDS011;61829;53.286;10.434;2023-03-01T00:26:36;14.55;;;6.45;;
73557;SDS011;61829;53.286;10.434;2023-03-01T00:29:02;15.57;;;5.93;;
73557;SDS011;61829;53.286;10.434;2023-03-01T00:31:29;19.67;;;6.07;;
73557;SDS011;61829;53.286;10.434;2023-03-01T00:33:57;14.73;;;6.55;;
73557;SDS011;61829;53.286;10.434;2023-03-01T00:36:28;12.57;;;5.65;;
73557;SDS011;61829;53.286;10.434;2023-03-01T00:38:57;16.70;;;6.72;;
73557;SDS011;61829;53.286;10.434;2023-03-01T00:41:23;15.40;;;6.97;;
73557;SDS011;61829;53.286;10.434;2023-03-01T00:43:51;14.60;;;7.53;;
73557;SDS011;61829;53.286;10.434;2023-03-01T00:46:19;11.02;;;6.38;;
73557;SDS011;61829;53.286;10.434;2023-03-01T00:48:45;15.55;;;6.47;;
73557;SDS011;61829;53.286;10.434;2023-03-01T00:51:21;12.23;;;6.07;;
73557;SDS011;61829;53.286;10.434;2023-03-01T00:53:53;9.80;;;5.32;;
73557;SDS011;61829;53.286;10.434;2023-03-01T00:56:20;12.02;;;5.93;;
73557;SDS011;61829;53.286;10.434;2023-03-01T00:58:46;11.30;;;6.03;;
73557;SDS011;61829;53.286;10.434;2023-03-01T01:01:16;12.95;;;6.30;;
73557;SDS011;61829;53.286;10.434;2023-03-01T01:03:47;16.52;;;7.05;;
73557;SDS011;61829;53.286;10.434;2023-03-01T01:06:28;13.00;;;6.35;;
73557;SDS011;61829;53.286;10.434;2023-03-01T01:08:56;11.98;;;7.07;;
73557;SDS011;61829;53.286;10.434;2023-03-01T01:11:23;15.07;;;6.97;;
73557;SDS011;61829;53.286;10.434;2023-03-01T01:16:17;13.35;;;5.53;;
73557;SDS011;61829;53.286;10.434;2023-03-01T01:18:44;13.68;;;6.80;;
73557;SDS011;61829;53.286;10.434;2023-03-01T01:21:11;13.43;;;7.05;;
73557;SDS011;61829;53.286;10.434;2023-03-01T01:23:40;16.98;;;5.97;;
73557;SDS011;61829;53.286;10.434;2023-03-01T01:26:07;12.30;;;6.40;;
73557;SDS011;61829;53.286;10.434;2023-03-01T01:28:37;11.90;;;6.53;;
73557;SDS011;61829;53.286;10.434;2023-03-01T01:31:04;10.90;;;6.13;;
73557;SDS011;61829;53.286;10.434;2023-03-01T01:33:31;12.57;;;6.47;;
73557;SDS011;61829;53.286;10.434;2023-03-01T01:35:57;11.13;;;6.15;;
73557;SDS011;61829;53.286;10.434;2023-03-01T01:38:23;14.23;;;6.28;;
73557;SDS011;61829;53.286;10.434;2023-03-01T01:40:49;12.23;;;6.07;;
73557;SDS011;61829;53.286;10.434;2023-03-01T01:45:52;9.90;;;5.72;;
73557;SDS011;61829;53.286;10.434;2023-03-01T01:48:23;11.27;;;5.38;;
73557;SDS011;61829;53.286;10.434;2023-03-01T01:50:57;8.00;;;4.95;;
73557;SDS011;61829;53.286;10.434;2023-03-01T01:53:26;8.88;;;5.22;;
73557;SDS011;61829;53.286;10.434;2023-03-01T01:55:55;10.02;;;4.95;;
73557;SDS011;61829;53.286;10.434;2023-03-01T01:58:24;10.32;;;5.03;;
73557;SDS011;61829;53.286;10.434;2023-03-01T02:00:53;9.05;;;4.95;;
73557;SDS011;61829;53.286;10.434;2023-03-01T02:03:23;7.90;;;4.85;;
73557;SDS011;61829;53.286;10.434;2023-03-01T02:08:32;7.93;;;4.28;;
73557;SDS011;61829;53.286;10.434;2023-03-01T02:11:00;9.10;;;3.78;;
73557;SDS011;61829;53.286;10.434;2023-03-01T02:13:30;7.38;;;3.80;;
73557;SDS011;61829;53.286;10.434;2023-03-01T02:15:57;10.25;;;4.28;;
73557;SDS011;61829;53.286;10.434;2023-03-01T02:18:23;8.98;;;4.60;;
73557;SDS011;61829;53.286;10.434;2023-03-01T02:23:40;9.25;;;3.97;;
73557;SDS011;61829;53.286;10.434;2023-03-01T02:26:28;7.50;;;4.10;;
73557;SDS011;61829;53.286;10.434;2023-03-01T02:29:03;8.13;;;3.42;;
73557;SDS011;61829;53.286;10.434;2023-03-01T02:31:31;5.88;;;3.35;;
73557;SDS011;61829;53.286;10.434;2023-03-01T02:34:10;6.68;;;3.55;;
73557;SDS011;61829;53.286;10.434;2023-03-01T02:36:51;6.68;;;3.45;;
73557;SDS011;61829;53.286;10.434;2023-03-01T02:39:20;5.72;;;3.03;;
73557;SDS011;61829;53.286;10.434;2023-03-01T02:41:51;8.32;;;3.15;;
73557;SDS011;61829;53.286;10.434;2023-03-01T02:44:19;9.60;;;4.07;;
73557;SDS011;61829;53.286;10.434;2023-03-01T02:46:50;6.43;;;3.15;;
73557;SDS011;61829;53.286;10.434;2023-03-01T02:49:19;4.55;;;3.03;;
73557;SDS011;61829;53.286;10.434;2023-03-01T02:54:50;5.30;;;3.10;;
73557;SDS011;61829;53.286;10.434;2023-03-01T02:57:32;7.95;;;3.08;;
73557;SDS011;61829;53.286;10.434;2023-03-01T03:00:01;6.15;;;3.45;;
73557;SDS011;61829;53.286;10.434;2023-03-01T03:02:32;6.97;;;3.15;;
73557;SDS011;61829;53.286;10.434;2023-03-01T03:05:11;4.40;;;2.72;;
73557;SDS011;61829;53.286;10.434;2023-03-01T03:07:40;5.35;;;2.55;;
73557;SDS011;61829;53.286;10.434;2023-03-01T03:10:11;5.97;;;2.90;;
73557;SDS011;61829;53.286;10.434;2023-03-01T03:12:40;5.05;;;2.83;;
73557;SDS011;61829;53.286;10.434;2023-03-01T03:15:07;7.47;;;3.58;;
73557;SDS011;61829;53.286;10.434;2023-03-01T03:17:38;6.82;;;3.03;;
73557;SDS011;61829;53.286;10.434;2023-03-01T03:20:05;6.22;;;3.58;;
73557;SDS011;61829;53.286;10.434;2023-03-01T03:22:36;5.22;;;2.60;;
73557;SDS011;61829;53.286;10.434;2023-03-01T03:25:05;4.18;;;2.40;;
73557;SDS011;61829;53.286;10.434;2023-03-01T03:27:39;5.53;;;2.60;;
73557;SDS011;61829;53.286;10.434;2023-03-01T03:30:07;7.28;;;3.03;;
73557;SDS011;61829;53.286;10.434;2023-03-01T03:32:41;6.55;;;2.78;;
73557;SDS011;61829;53.286;10.434;2023-03-01T03:35:21;6.20;;;2.65;;
73557;SDS011;61829;53.286;10.434;2023-03-01T03:37:50;4.10;;;2.70;;
73557;SDS011;61829;53.286;10.434;2023-03-01T03:40:38;6.68;;;2.42;;
73557;SDS011;61829;53.286;10.434;2023-03-01T03:43:06;6.25;;;2.83;;
73557;SDS011;61829;53.286;10.434;2023-03-01T03:45:34;5.78;;;2.70;;
73557;SDS011;61829;53.286;10.434;2023-03-01T03:48:02;4.68;;;2.58;;
73557;SDS011;61829;53.286;10.434;2023-03-01T03:50:30;4.95;;;2.70;;
73557;SDS011;61829;53.286;10.434;2023-03-01T03:52:56;4.88;;;2.63;;
73557;SDS011;61829;53.286;10.434;2023-03-01T03:55:22;11.95;;;2.97;;
73557;SDS011;61829;53.286;10.434;2023-03-01T03:57:48;8.02;;;3.58;;
73557;SDS011;61829;53.286;10.434;2023-03-01T04:00:20;7.05;;;3.95;;
73557;SDS011;61829;53.286;10.434;2023-03-01T04:02:47;7.07;;;3.17;;
73557;SDS011;61829;53.286;10.434;2023-03-01T04:05:14;6.53;;;3.15;;
73557;SDS011;61829;53.286;10.434;2023-03-01T04:07:42;6.57;;;2.58;;
73557;SDS011;61829;53.286;10.434;2023-03-01T04:10:10;5.07;;;2.45;;
73557;SDS011;61829;53.286;10.434;2023-03-01T04:12:38;4.50;;;2.60;;
73557;SDS011;61829;53.286;10.434;2023-03-01T04:15:05;7.13;;;3.15;;
73557;SDS011;61829;53.286;10.434;2023-03-01T04:17:39;6.63;;;3.15;;
73557;SDS011;61829;53.286;10.434;2023-03-01T04:20:10;4.88;;;2.50;;
73557;SDS011;61829;53.286;10.434;2023-03-01T04:22:38;4.07;;;2.47;;
73557;SDS011;61829;53.286;10.434;2023-03-01T04:25:06;6.07;;;2.78;;
73557;SDS011;61829;53.286;10.434;2023-03-01T04:27:33;7.28;;;3.25;;
73557;SDS011;61829;53.286;10.434;2023-03-01T04:29:59;4.05;;;2.53;;
73557;SDS011;61829;53.286;10.434;2023-03-01T04:32:25;5.07;;;2.70;;
73557;SDS011;61829;53.286;10.434;2023-03-01T04:34:51;4.20;;;2.70;;
73557;SDS011;61829;53.286;10.434;2023-03-01T04:37:17;8.45;;;3.47;;
73557;SDS011;61829;53.286;10.434;2023-03-01T04:39:42;6.38;;;3.17;;
73557;SDS011;61829;53.286;10.434;2023-03-01T04:42:16;7.10;;;3.70;;
73557;SDS011;61829;53.286;10.434;2023-03-01T04:44:42;5.80;;;3.22;;
73557;SDS011;61829;53.286;10.434;2023-03-01T04:47:09;6.07;;;3.60;;
73557;SDS011;61829;53.286;10.434;2023-03-01T04:49:34;4.82;;;3.08;;
73557;SDS011;61829;53.286;10.434;2023-03-01T04:52:00;7.57;;;3.80;;
73557;SDS011;61829;53.286;10.434;2023-03-01T04:54:29;6.63;;;3.65;;
73557;SDS011;61829;53.286;10.434;2023-03-01T04:57:00;6.93;;;3.78;;
73557;SDS011;61829;53.286;10.434;2023-03-01T04:59:27;7.13;;;4.28;;
73557;SDS011;61829;53.286;10.434;2023-03-01T05:01:54;9.18;;;4.15;;
73557;SDS011;61829;53.286;10.434;2023-03-01T05:04:25;9.23;;;4.47;;
73557;SDS011;61829;53.286;10.434;2023-03-01T05:06:51;8.27;;;4.38;;
73557;SDS011;61829;53.286;10.434;2023-03-01T05:09:19;7.95;;;4.15;;
73557;SDS011;61829;53.286;10.434;2023-03-01T05:11:45;7.88;;;4.00;;
73557;SDS011;61829;53.286;10.434;2023-03-01T05:14:11;7.22;;;3.75;;
73557;SDS011;61829;53.286;10.434;2023-03-01T05:16:37;7.10;;;3.78;;
73557;SDS011;61829;53.286;10.434;2023-03-01T05:19:03;9.50;;;4.13;;
73557;SDS011;61829;53.286;10.434;2023-03-01T05:21:39;8.65;;;3.90;;
73557;SDS011;61829;53.286;10.434;2023-03-01T05:24:25;5.85;;;3.53;;
73557;SDS011;61829;53.286;10.434;2023-03-01T05:26:52;6.60;;;3.70;;
73557;SDS011;61829;53.286;10.434;2023-03-01T05:29:19;5.85;;;3.22;;
73557;SDS011;61829;53.286;10.434;2023-03-01T05:31:54;7.13;;;3.13;;
73557;SDS011;61829;53.286;10.434;2023-03-01T05:34:25;7.32;;;3.17;;
73557;SDS011;61829;53.286;10.434;2023-03-01T05:36:52;6.45;;;3.22;;
73557;SDS011;61829;53.286;10.434;2023-03-01T05:39:22;9.85;;;3.45;;
73557;SDS011;61829;53.286;10.434;2023-03-01T05:41:51;7.43;;;3.83;;
73557;SDS011;61829;53.286;10.434;2023-03-01T05:44:18;4.82;;;2.80;;
73557;SDS011;61829;53.286;10.434;2023-03-01T05:46:44;6.80;;;3.05;;
73557;SDS011;61829;53.286;10.434;2023-03-01T05:49:10;6.32;;;2.92;;
73557;SDS011;61829;53.286;10.434;2023-03-01T05:51:41;5.60;;;2.72;;
73557;SDS011;61829;53.286;10.434;2023-03-01T05:54:09;5.22;;;2.80;;
73557;SDS011;61829;53.286;10.434;2023-03-01T05:56:36;6.13;;;2.90;;
73557;SDS011;61829;53.286;10.434;2023-03-01T05:59:05;5.53;;;2.90;;
73557;SDS011;61829;53.286;10.434;2023-03-01T06:01:32;5.32;;;2.40;;
73557;SDS011;61829;53.286;10.434;2023-03-01T06:03:58;4.85;;;2.53;;
73557;SDS011;61829;53.286;10.434;2023-03-01T06:06:25;6.28;;;2.63;;
73557;SDS011;61829;53.286;10.434;2023-03-01T06:08:51;9.35;;;3.20;;
73557;SDS011;61829;53.286;10.434;2023-03-01T06:11:18;5.28;;;2.28;;
73557;SDS011;61829;53.286;10.434;2023-03-01T06:13:44;6.30;;;3.15;;
73557;SDS011;61829;53.286;10.434;2023-03-01T06:16:12;5.03;;;2.78;;
73557;SDS011;61829;53.286;10.434;2023-03-01T06:18:39;6.13;;;3.30;;
73557;SDS011;61829;53.286;10.434;2023-03-01T06:21:05;3.63;;;2.38;;
73557;SDS011;61829;53.286;10.434;2023-03-01T06:23:32;4.43;;;2.13;;
73557;SDS011;61829;53.286;10.434;2023-03-01T06:25:58;5.90;;;2.83;;
73557;SDS011;61829;53.286;10.434;2023-03-01T06:28:25;4.60;;;2.63;;
73557;SDS011;61829;53.286;10.434;2023-03-01T06:30:53;5.97;;;2.78;;
73557;SDS011;61829;53.286;10.434;2023-03-01T06:33:19;4.57;;;2.55;;
73557;SDS011;61829;53.286;10.434;2023-03-01T06:35:46;5.35;;;2.58;;
73557;SDS011;61829;53.286;10.434;2023-03-01T06:38:12;5.70;;;2.53;;
73557;SDS011;61829;53.286;10.434;2023-03-01T06:40:40;4.75;;;2.45;;
73557;SDS011;61829;53.286;10.434;2023-03-01T06:43:06;5.88;;;2.45;;
73557;SDS011;61829;53.286;10.434;2023-03-01T06:45:33;6.43;;;3.00;;
73557;SDS011;61829;53.286;10.434;2023-03-01T06:48:05;5.85;;;2.80;;
73557;SDS011;61829;53.286;10.434;2023-03-01T06:50:33;4.07;;;2.80;;
73557;SDS011;61829;53.286;10.434;2023-03-01T06:53:00;5.75;;;2.88;;
73557;SDS011;61829;53.286;10.434;2023-03-01T06:55:27;4.20;;;2.45;;
73557;SDS011;61829;53.286;10.434;2023-03-01T06:57:57;5.25;;;2.80;;
73557;SDS011;61829;53.286;10.434;2023-03-01T07:00:25;4.28;;;2.50;;
73557;SDS011;61829;53.286;10.434;2023-03-01T07:02:51;6.80;;;3.00;;
73557;SDS011;61829;53.286;10.434;2023-03-01T07:05:17;8.27;;;4.43;;
73557;SDS011;61829;53.286;10.434;2023-03-01T07:07:43;10.90;;;4.38;;
73557;SDS011;61829;53.286;10.434;2023-03-01T07:10:10;9.73;;;3.80;;
73557;SDS011;61829;53.286;10.434;2023-03-01T07:12:36;6.53;;;3.05;;
73557;SDS011;61829;53.286;10.434;2023-03-01T07:15:03;7.68;;;3.25;;
73557;SDS011;61829;53.286;10.434;2023-03-01T07:17:29;9.05;;;4.78;;
73557;SDS011;61829;53.286;10.434;2023-03-01T07:19:56;6.68;;;3.45;;
73557;SDS011;61829;53.286;10.434;2023-03-01T07:22:22;7.65;;;4.47;;
73557;SDS011;61829;53.286;10.434;2023-03-01T07:24:48;4.90;;;2.95;;
73557;SDS011;61829;53.286;10.434;2023-03-01T07:27:14;5.32;;;2.80;;
73557;SDS011;61829;53.286;10.434;2023-03-01T07:29:40;6.63;;;2.92;;
73557;SDS011;61829;53.286;10.434;2023-03-01T07:32:05;6.90;;;3.05;;
73557;SDS011;61829;53.286;10.434;2023-03-01T07:34:31;5.63;;;2.72;;
73557;SDS011;61829;53.286;10.434;2023-03-01T07:36:57;6.75;;;3.20;;
73557;SDS011;61829;53.286;10.434;2023-03-01T07:39:23;5.57;;;2.95;;
73557;SDS011;61829;53.286;10.434;2023-03-01T07:41:49;6.85;;;2.92;;
73557;SDS011;61829;53.286;10.434;2023-03-01T07:44:16;7.05;;;3.60;;
73557;SDS011;61829;53.286;10.434;2023-03-01T07:46:42;6.00;;;3.70;;
73557;SDS011;61829;53.286;10.434;2023-03-01T07:49:09;6.55;;;3.70;;
73557;SDS011;61829;53.286;10.434;2023-03-01T07:51:35;6.45;;;3.40;;
73557;SDS011;61829;53.286;10.434;2023-03-01T07:54:01;8.20;;;3.17;;
73557;SDS011;61829;53.286;10.434;2023-03-01T07:56:27;6.50;;;3.20;;
73557;SDS011;61829;53.286;10.434;2023-03-01T07:58:53;7.05;;;3.42;;
73557;SDS011;61829;53.286;10.434;2023-03-01T08:01:19;7.95;;;3.35;;
73557;SDS011;61829;53.286;10.434;2023-03-01T08:03:46;5.28;;;3.03;;
73557;SDS011;61829;53.286;10.434;2023-03-01T08:06:13;4.53;;;2.67;;
73557;SDS011;61829;53.286;10.434;2023-03-01T08:08:41;6.75;;;3.40;;
73557;SDS011;61829;53.286;10.434;2023-03-01T08:11:08;6.22;;;3.10;;
73557;SDS011;61829;53.286;10.434;2023-03-01T08:13:36;4.97;;;2.88;;
73557;SDS011;61829;53.286;10.434;2023-03-01T08:16:20;8.02;;;3.28;;
73557;SDS011;61829;53.286;10.434;2023-03-01T08:18:46;5.35;;;3.25;;
73557;SDS011;61829;53.286;10.434;2023-03-01T08:21:13;6.53;;;3.00;;
73557;SDS011;61829;53.286;10.434;2023-03-01T08:23:41;8.18;;;3.35;;
73557;SDS011;61829;53.286;10.434;2023-03-01T08:26:08;7.55;;;3.78;;
73557;SDS011;61829;53.286;10.434;2023-03-01T08:28:40;10.95;;;4.00;;
73557;SDS011;61829;53.286;10.434;2023-03-01T08:31:13;9.73;;;3.45;;
73557;SDS011;61829;53.286;10.434;2023-03-01T08:33:39;6.35;;;3.25;;
73557;SDS011;61829;53.286;10.434;2023-03-01T08:36:05;5.50;;;2.95;;
73557;SDS011;61829;53.286;10.434;2023-03-01T08:38:33;7.00;;;3.08;;
73557;SDS011;61829;53.286;10.434;2023-03-01T08:41:02;8.55;;;3.22;;
73557;SDS011;61829;53.286;10.434;2023-03-01T08:43:29;5.97;;;3.22;;
73557;SDS011;61829;53.286;10.434;2023-03-01T08:45:55;8.45;;;3.63;;
73557;SDS011;61829;53.286;10.434;2023-03-01T08:48:21;8.93;;;3.38;;
73557;SDS011;61829;53.286;10.434;2023-03-01T08:50:47;8.40;;;3.38;;
73557;SDS011;61829;53.286;10.434;2023-03-01T08:53:12;9.43;;;3.22;;
73557;SDS011;61829;53.286;10.434;2023-03-01T08:55:38;9.63;;;3.05;;
73557;SDS011;61829;53.286;10.434;2023-03-01T08:58:04;4.88;;;2.40;;
73557;SDS011;61829;53.286;10.434;2023-03-01T09:00:30;4.63;;;2.25;;
73557;SDS011;61829;53.286;10.434;2023-03-01T09:02:56;7.25;;;2.75;;
73557;SDS011;61829;53.286;10.434;2023-03-01T09:05:21;6.10;;;2.70;;
73557;SDS011;61829;53.286;10.434;2023-03-01T09:07:48;6.60;;;2.80;;
73557;SDS011;61829;53.286;10.434;2023-03-01T09:10:14;6.50;;;2.53;;
73557;SDS011;61829;53.286;10.434;2023-03-01T09:12:40;6.32;;;2.60;;
73557;SDS011;61829;53.286;10.434;2023-03-01T09:15:05;8.15;;;2.75;;
73557;SDS011;61829;53.286;10.434;2023-03-01T09:17:33;5.50;;;2.63;;
73557;SDS011;61829;53.286;10.434;2023-03-01T09:19:59;5.55;;;2.55;;
73557;SDS011;61829;53.286;10.434;2023-03-01T09:22:25;6.10;;;2.47;;
73557;SDS011;61829;53.286;10.434;2023-03-01T09:24:51;8.18;;;2.80;;
73557;SDS011;61829;53.286;10.434;2023-03-01T09:27:17;6.72;;;2.67;;
73557;SDS011;61829;53.286;10.434;2023-03-01T09:29:44;5.38;;;3.03;;
73557;SDS011;61829;53.286;10.434;2023-03-01T09:32:10;8.02;;;2.95;;
73557;SDS011;61829;53.286;10.434;2023-03-01T09:34:36;5.88;;;3.10;;
73557;SDS011;61829;53.286;10.434;2023-03-01T09:37:22;9.35;;;3.28;;
73557;SDS011;61829;53.286;10.434;2023-03-01T09:39:48;8.95;;;4.50;;
73557;SDS011;61829;53.286;10.434;2023-03-01T09:42:14;9.68;;;4.07;;
73557;SDS011;61829;53.286;10.434;2023-03-01T09:47:26;8.70;;;3.92;;
73557;SDS011;61829;53.286;10.434;2023-03-01T09:50:10;8.60;;;3.72;;
73557;SDS011;61829;53.286;10.434;2023-03-01T10:01:10;10.05;;;4.53;;
73557;SDS011;61829;53.286;10.434;2023-03-01T10:03:43;9.57;;;4.15;;
73557;SDS011;61829;53.286;10.434;2023-03-01T10:06:26;8.38;;;3.88;;
73557;SDS011;61829;53.286;10.434;2023-03-01T10:08:59;9.45;;;4.10;;
73557;SDS011;61829;53.286;10.434;2023-03-01T10:11:32;10.07;;;4.25;;
73557;SDS011;61829;53.286;10.434;2023-03-01T10:16:54;9.32;;;3.95;;
73557;SDS011;61829;53.286;10.434;2023-03-01T10:19:45;6.85;;;3.65;;
73557;SDS011;61829;53.286;10.434;2023-03-01T10:22:21;9.50;;;4.53;;
73557;SDS011;61829;53.286;10.434;2023-03-01T10:24:54;9.68;;;4.18;;
73557;SDS011;61829;53.286;10.434;2023-03-01T10:27:45;7.53;;;4.43;;
73557;SDS011;61829;53.286;10.434;2023-03-01T10:32:48;6.72;;;3.90;;
73557;SDS011;61829;53.286;10.434;2023-03-01T10:35:22;8.05;;;4.18;;
73557;SDS011;61829;53.286;10.434;2023-03-01T10:40:29;9.30;;;4.40;;
73557;SDS011;61829;53.286;10.434;2023-03-01T10:43:00;7.20;;;3.95;;
73557;SDS011;61829;53.286;10.434;2023-03-01T10:48:11;10.80;;;4.68;;
73557;SDS011;61829;53.286;10.434;2023-03-01T10:50:50;10.77;;;4.20;;
73557;SDS011;61829;53.286;10.434;2023-03-01T10:53:32;9.35;;;5.18;;
73557;SDS011;61829;53.286;10.434;2023-03-01T10:56:05;10.23;;;5.63;;
73557;SDS011;61829;53.286;10.434;2023-03-01T10:58:32;11.00;;;4.70;;
73557;SDS011;61829;53.286;10.434;2023-03-01T11:01:02;7.82;;;4.75;;
73557;SDS011;61829;53.286;10.434;2023-03-01T11:03:35;11.00;;;4.85;;
73557;SDS011;61829;53.286;10.434;2023-03-01T11:06:04;9.95;;;5.55;;
73557;SDS011;61829;53.286;10.434;2023-03-01T11:08:51;9.30;;;5.18;;
73557;SDS011;61829;53.286;10.434;2023-03-01T11:11:32;8.43;;;5.05;;
73557;SDS011;61829;53.286;10.434;2023-03-01T11:14:02;10.48;;;5.40;;
73557;SDS011;61829;53.286;10.434;2023-03-01T11:16:34;8.93;;;5.38;;
73557;SDS011;61829;53.286;10.434;2023-03-01T11:21:34;15.80;;;7.97;;
73557;SDS011;61829;53.286;10.434;2023-03-01T11:24:04;8.90;;;4.97;;
73557;SDS011;61829;53.286;10.434;2023-03-01T11:26:37;8.52;;;5.47;;
73557;SDS011;61829;53.286;10.434;2023-03-01T11:29:07;9.93;;;4.90;;
73557;SDS011;61829;53.286;10.434;2023-03-01T11:31:42;9.32;;;5.00;;
73557;SDS011;61829;53.286;10.434;2023-03-01T11:34:12;8.73;;;4.60;;
73557;SDS011;61829;53.286;10.434;2023-03-01T11:36:50;11.13;;;4.75;;
73557;SDS011;61829;53.286;10.434;2023-03-01T11:44:52;8.82;;;5.25;;
73557;SDS011;61829;53.286;10.434;2023-03-01T11:47:24;9.73;;;5.30;;
73557;SDS011;61829;53.286;10.434;2023-03-01T11:52:43;7.57;;;4.50;;
73557;SDS011;61829;53.286;10.434;2023-03-01T12:03:33;8.40;;;5.13;;
73557;SDS011;61829;53.286;10.434;2023-03-01T12:19:52;7.47;;;5.10;;
73557;SDS011;61829;53.286;10.434;2023-03-01T12:22:32;10.00;;;4.93;;
73557;SDS011;61829;53.286;10.434;2023-03-01T12:38:42;9.52;;;5.82;;
73557;SDS011;61829;53.286;10.434;2023-03-01T12:44:15;10.38;;;6.25;;
73557;SDS011;61829;53.286;10.434;2023-03-01T12:49:31;11.13;;;5.97;;
73557;SDS011;61829;53.286;10.434;2023-03-01T12:52:00;11.75;;;6.60;;
73557;SDS011;61829;53.286;10.434;2023-03-01T12:54:28;10.93;;;5.53;;
73557;SDS011;61829;53.286;10.434;2023-03-01T12:56:57;11.75;;;6.00;;
73557;SDS011;61829;53.286;10.434;2023-03-01T12:59:31;11.00;;;6.63;;
73557;SDS011;61829;53.286;10.434;2023-03-01T13:04:46;10.63;;;6.00;;
73557;SDS011;61829;53.286;10.434;2023-03-01T13:10:28;11.02;;;5.90;;
73557;SDS011;61829;53.286;10.434;2023-03-01T13:17:49;12.48;;;6.28;;
73557;SDS011;61829;53.286;10.434;2023-03-01T13:23:27;10.00;;;6.03;;
73557;SDS011;61829;53.286;10.434;2023-03-01T13:30:59;9.48;;;5.70;;
73557;SDS011;61829;53.286;10.434;2023-03-01T13:35:56;10.85;;;6.28;;
73557;SDS011;61829;53.286;10.434;2023-03-01T13:41:12;9.43;;;5.32;;
73557;SDS011;61829;53.286;10.434;2023-03-01T13:43:41;10.32;;;6.18;;
73557;SDS011;61829;53.286;10.434;2023-03-01T13:46:20;11.63;;;5.97;;
73557;SDS011;61829;53.286;10.434;2023-03-01T13:48:52;8.77;;;5.28;;
73557;SDS011;61829;53.286;10.434;2023-03-01T13:51:25;9.98;;;5.55;;
73557;SDS011;61829;53.286;10.434;2023-03-01T13:53:54;9.55;;;5.65;;
73557;SDS011;61829;53.286;10.434;2023-03-01T13:56:23;10.25;;;5.28;;
73557;SDS011;61829;53.286;10.434;2023-03-01T14:01:24;8.05;;;4.85;;
73557;SDS011;61829;53.286;10.434;2023-03-01T14:04:25;8.70;;;5.15;;
73557;SDS011;61829;53.286;10.434;2023-03-01T14:09:42;10.27;;;5.93;;
73557;SDS011;61829;53.286;10.434;2023-03-01T14:15:10;10.68;;;5.68;;
73557;SDS011;61829;53.286;10.434;2023-03-01T14:20:33;9.13;;;5.13;;
73557;SDS011;61829;53.286;10.434;2023-03-01T14:23:10;10.10;;;5.55;;
73557;SDS011;61829;53.286;10.434;2023-03-01T14:25:39;10.90;;;5.45;;
73557;SDS011;61829;53.286;10.434;2023-03-01T14:30:50;9.05;;;5.22;;
73557;SDS011;61829;53.286;10.434;2023-03-01T14:33:33;10.52;;;5.65;;
73557;SDS011;61829;53.286;10.434;2023-03-01T14:36:08;7.80;;;4.90;;
73557;SDS011;61829;53.286;10.434;2023-03-01T14:38:45;10.45;;;5.38;;
73557;SDS011;61829;53.286;10.434;2023-03-01T14:41:16;9.00;;;5.35;;
73557;SDS011;61829;53.286;10.434;2023-03-01T14:43:45;9.93;;;5.40;;
73557;SDS011;61829;53.286;10.434;2023-03-01T14:46:18;12.00;;;5.38;;
73557;SDS011;61829;53.286;10.434;2023-03-01T14:48:48;11.57;;;5.72;;
73557;SDS011;61829;53.286;10.434;2023-03-01T14:51:18;10.15;;;5.43;;
73557;SDS011;61829;53.286;10.434;2023-03-01T14:53:44;11.68;;;5.65;;
73557;SDS011;61829;53.286;10.434;2023-03-01T14:56:14;7.97;;;4.95;;
73557;SDS011;61829;53.286;10.434;2023-03-01T14:58:43;9.20;;;5.45;;
73557;SDS011;61829;53.286;10.434;2023-03-01T15:01:10;7.82;;;4.90;;
73557;SDS011;61829;53.286;10.434;2023-03-01T15:03:41;9.45;;;5.65;;
73557;SDS011;61829;53.286;10.434;2023-03-01T15:06:09;9.38;;;5.30;;
73557;SDS011;61829;53.286;10.434;2023-03-01T15:08:44;10.35;;;4.78;;
73557;SDS011;61829;53.286;10.434;2023-03-01T15:11:22;9.80;;;5.30;;
73557;SDS011;61829;53.286;10.434;2023-03-01T15:17:15;9.70;;;5.22;;
73557;SDS011;61829;53.286;10.434;2023-03-01T15:19:48;10.95;;;5.30;;
73557;SDS011;61829;53.286;10.434;2023-03-01T15:22:15;8.02;;;5.13;;
73557;SDS011;61829;53.286;10.434;2023-03-01T15:24:42;8.55;;;5.00;;
73557;SDS011;61829;53.286;10.434;2023-03-01T15:27:14;9.80;;;5.15;;
73557;SDS011;61829;53.286;10.434;2023-03-01T15:29:51;9.27;;;5.30;;
73557;SDS011;61829;53.286;10.434;2023-03-01T15:32:30;9.25;;;5.47;;
73557;SDS011;61829;53.286;10.434;2023-03-01T15:34:59;9.10;;;5.25;;
73557;SDS011;61829;53.286;10.434;2023-03-01T15:37:38;9.65;;;5.35;;
73557;SDS011;61829;53.286;10.434;2023-03-01T15:40:25;9.60;;;5.22;;
73557;SDS011;61829;53.286;10.434;2023-03-01T15:43:02;14.57;;;8.88;;
73557;SDS011;61829;53.286;10.434;2023-03-01T15:45:32;9.13;;;5.28;;
73557;SDS011;61829;53.286;10.434;2023-03-01T15:48:05;10.88;;;5.32;;
73557;SDS011;61829;53.286;10.434;2023-03-01T15:50:46;8.27;;;5.10;;
73557;SDS011;61829;53.286;10.434;2023-03-01T15:53:20;9.20;;;4.90;;
73557;SDS011;61829;53.286;10.434;2023-03-01T15:55:46;9.45;;;5.15;;
73557;SDS011;61829;53.286;10.434;2023-03-01T15:58:16;9.45;;;5.05;;
73557;SDS011;61829;53.286;10.434;2023-03-01T16:00:44;8.05;;;4.68;;
73557;SDS011;61829;53.286;10.434;2023-03-01T16:03:12;9.40;;;4.68;;
73557;SDS011;61829;53.286;10.434;2023-03-01T16:05:39;9.00;;;4.53;;
73557;SDS011;61829;53.286;10.434;2023-03-01T16:08:05;8.63;;;4.72;;
73557;SDS011;61829;53.286;10.434;2023-03-01T16:10:32;8.77;;;4.53;;
73557;SDS011;61829;53.286;10.434;2023-03-01T16:13:01;8.23;;;4.55;;
73557;SDS011;61829;53.286;10.434;2023-03-01T16:17:57;9.32;;;4.80;;
73557;SDS011;61829;53.286;10.434;2023-03-01T16:20:26;8.25;;;4.15;;
73557;SDS011;61829;53.286;10.434;2023-03-01T16:25:20;8.82;;;4.30;;
73557;SDS011;61829;53.286;10.434;2023-03-01T16:27:48;8.13;;;4.15;;
73557;SDS011;61829;53.286;10.434;2023-03-01T16:30:16;8.55;;;4.50;;
73557;SDS011;61829;53.286;10.434;2023-03-01T16:32:44;8.43;;;4.75;;
73557;SDS011;61829;53.286;10.434;2023-03-01T16:35:13;11.45;;;5.22;;
73557;SDS011;61829;53.286;10.434;2023-03-01T16:37:41;7.32;;;4.57;;
73557;SDS011;61829;53.286;10.434;2023-03-01T16:40:14;11.15;;;5.55;;
73557;SDS011;61829;53.286;10.434;2023-03-01T16:42:49;10.00;;;5.68;;
73557;SDS011;61829;53.286;10.434;2023-03-01T16:45:16;9.45;;;5.38;;
73557;SDS011;61829;53.286;10.434;2023-03-01T16:47:42;10.38;;;6.00;;
73557;SDS011;61829;53.286;10.434;2023-03-01T16:50:09;15.43;;;7.88;;
73557;SDS011;61829;53.286;10.434;2023-03-01T16:52:36;14.77;;;9.00;;
73557;SDS011;61829;53.286;10.434;2023-03-01T16:55:02;18.42;;;10.30;;
73557;SDS011;61829;53.286;10.434;2023-03-01T16:57:30;15.27;;;9.75;;
73557;SDS011;61829;53.286;10.434;2023-03-01T16:59:56;18.00;;;9.63;;